This is the latest recevied weather packets stored in our database for station/object YC0TBU-4. If no packets are shown the sender has not sent any weather packets the latest 10 day(s).
| Time | Temp. | Humidity | Pressure | Rain* | Wind** | Luminosity | Snow |
|---|---|---|---|---|---|---|---|
| 1777978599 | 30° C | 42% | 1010.6 hPa | - | - | - | - |
| 1777977664 | 28.89° C | 45% | 1010.1 hPa | - | - | - | - |
| 1777976729 | 30° C | 42% | 1010.4 hPa | - | - | - | - |
| 1777975794 | 32.22° C | 36% | 1009.6 hPa | - | - | - | - |
| 1777974859 | 32.22° C | 36% | 1008.3 hPa | - | - | - | - |
| 1777973908 | 32.22° C | 35% | 1008.9 hPa | - | - | - | - |
| 1777972973 | 31.67° C | 36% | 1009.1 hPa | - | - | - | - |
| 1777972038 | 32.78° C | 34% | 1007.8 hPa | - | - | - | - |
| 1777971108 | 33.33° C | 34% | 1007.4 hPa | - | - | - | - |
| 1777970152 | 32.22° C | 34% | 1007.6 hPa | - | - | - | - |
| 1777969216 | 32.22° C | 35% | 1007.9 hPa | - | - | - | - |
| 1777968281 | 32.22° C | 35% | 1008 hPa | - | - | - | - |
| 1777967347 | 32.22° C | 35% | 1008.5 hPa | - | - | - | - |
| 1777966412 | 31.67° C | 36% | 1009 hPa | - | - | - | - |
| 1777965476 | 31.67° C | 36% | 1008.5 hPa | - | - | - | - |
| 1777964541 | 31.67° C | 36% | 1008.6 hPa | - | - | - | - |
| 1777963606 | 32.22° C | 35% | 1008.1 hPa | - | - | - | - |
| 1777962655 | 31.67° C | 37% | 1009.3 hPa | - | - | - | - |
| 1777961720 | 31.11° C | 37% | 1009 hPa | - | - | - | - |
| 1777960785 | 30.56° C | 39% | 1009.2 hPa | - | - | - | - |
| 1777959850 | 30.56° C | 39% | 1008.8 hPa | - | - | - | - |
| 1777958915 | 31.11° C | 39% | 1009.7 hPa | - | - | - | - |
| 1777957980 | 31.67° C | 38% | 1010.3 hPa | - | - | - | - |
| 1777957045 | 31.11° C | 39% | 1010.5 hPa | - | - | - | - |
| 1777956110 | 30.56° C | 40% | 1011.3 hPa | - | - | - | - |
* Rain since midnight (hover to see other rain measurements)
** Current wind speed in m/s (hover to see current wind gust speed)